Time;durP1;ratioP1;P1;durP2;ratioP2;P2;SDS_P1;SDS_P2;PMS_P1;PMS_P2;Temp;Humidity;BMP_temperature;BMP_pressure;BME280_temperature;BME280_humidity;BME280_pressure;Samples;Min_cycle;Max_cycle;Signal;HPM_P1;HPM_P2
2024/02/26 00:01:48;;;;;;;1.63;1.52;;;7.20;87.60;;;;;;5047554;28;20029;-66
2024/02/26 00:04:14;;;;;;;3.20;1.90;;;7.10;87.30;;;;;;5047732;28;20100;-66
2024/02/26 00:06:42;;;;;;;2.28;1.80;;;7.10;87.00;;;;;;5046121;28;20104;-67
2024/02/26 00:09:09;;;;;;;3.15;2.10;;;7.10;87.10;;;;;;5046377;28;20039;-66
2024/02/26 00:11:37;;;;;;;2.70;1.98;;;7.10;86.90;;;;;;5044408;28;20496;-66
2024/02/26 00:14:03;;;;;;;3.33;2.50;;;7.10;87.20;;;;;;5046864;28;20050;-66
2024/02/26 00:16:29;;;;;;;2.55;2.00;;;7.10;86.60;;;;;;5046498;28;20056;-67
2024/02/26 00:18:55;;;;;;;3.50;2.33;;;7.00;86.60;;;;;;5047266;28;20082;-66
2024/02/26 00:21:20;;;;;;;3.42;2.60;;;7.00;86.40;;;;;;5044990;28;20048;-66
2024/02/26 00:23:46;;;;;;;3.38;2.20;;;7.00;86.50;;;;;;5047476;28;20029;-66
2024/02/26 00:26:11;;;;;;;2.63;2.22;;;6.90;86.60;;;;;;5045480;28;20033;-67
2024/02/26 00:28:37;;;;;;;2.47;1.88;;;7.00;86.70;;;;;;5045830;28;20033;-67
2024/02/26 00:31:03;;;;;;;4.22;2.20;;;7.00;86.60;;;;;;5046928;28;20074;-66
2024/02/26 00:33:29;;;;;;;3.33;2.35;;;7.00;86.70;;;;;;5040917;28;20033;-66
2024/02/26 00:35:55;;;;;;;3.25;1.95;;;7.00;86.60;;;;;;5046465;28;20021;-67
2024/02/26 00:38:20;;;;;;;4.00;2.40;;;7.00;86.70;;;;;;5047318;28;20395;-66
2024/02/26 00:40:46;;;;;;;2.75;2.00;;;7.00;86.60;;;;;;5048387;28;20040;-67
2024/02/26 00:43:11;;;;;;;2.20;1.90;;;7.00;86.70;;;;;;5047622;28;20027;-66
2024/02/26 00:45:37;;;;;;;2.28;1.73;;;7.00;86.80;;;;;;5042552;28;20063;-66
2024/02/26 00:48:05;;;;;;;1.95;1.85;;;7.00;86.70;;;;;;5046928;28;20021;-65
2024/02/26 00:50:31;;;;;;;1.70;1.60;;;7.10;86.80;;;;;;5047337;28;20103;-67
2024/02/26 00:52:56;;;;;;;1.70;1.60;;;7.10;86.70;;;;;;5051604;28;20021;-64
2024/02/26 00:55:22;;;;;;;1.50;1.40;;;7.10;86.70;;;;;;5048006;28;20090;-67
2024/02/26 00:57:48;;;;;;;1.90;1.67;;;7.10;86.40;;;;;;5045781;28;20075;-67
2024/02/26 01:00:14;;;;;;;3.00;1.90;;;7.20;86.50;;;;;;5047840;28;20036;-66
2024/02/26 01:02:41;;;;;;;2.83;2.20;;;7.10;86.50;;;;;;5045198;28;20025;-65
2024/02/26 01:05:09;;;;;;;2.80;2.05;;;7.00;86.50;;;;;;5050034;28;20029;-65
2024/02/26 01:07:35;;;;;;;2.10;1.88;;;7.00;86.60;;;;;;5045298;28;20047;-66
2024/02/26 01:10:02;;;;;;;2.60;2.00;;;6.90;86.60;;;;;;5047504;28;20498;-65
2024/02/26 01:12:28;;;;;;;2.05;1.70;;;6.90;86.70;;;;;;5047196;28;20029;-65
2024/02/26 01:14:54;;;;;;;2.38;1.80;;;6.90;86.80;;;;;;5047444;28;20451;-65
2024/02/26 01:17:19;;;;;;;2.30;1.88;;;7.00;86.80;;;;;;5047242;28;20036;-64
2024/02/26 01:19:46;;;;;;;2.80;1.80;;;7.00;86.80;;;;;;5047626;28;20463;-64
2024/02/26 01:22:11;;;;;;;2.00;1.80;;;7.00;86.70;;;;;;5047028;28;20108;-65
2024/02/26 01:24:37;;;;;;;2.05;1.85;;;7.00;86.70;;;;;;5047264;28;20563;-66
2024/02/26 01:27:03;;;;;;;2.63;2.42;;;6.80;86.70;;;;;;5045095;28;20025;-67
2024/02/26 01:29:29;;;;;;;2.30;1.90;;;6.80;86.90;;;;;;5047117;28;20099;-66
2024/02/26 01:31:54;;;;;;;2.83;2.22;;;6.80;87.10;;;;;;5047008;28;20039;-66
2024/02/26 01:34:20;;;;;;;2.72;2.10;;;6.80;87.10;;;;;;5046587;28;20055;-66
2024/02/26 01:36:46;;;;;;;2.05;1.85;;;6.80;87.10;;;;;;5044080;28;20029;-66
2024/02/26 01:39:12;;;;;;;2.20;2.00;;;6.80;87.10;;;;;;5046564;28;20033;-67
2024/02/26 01:41:38;;;;;;;3.05;2.20;;;6.80;87.00;;;;;;5046939;28;20072;-66
2024/02/26 01:44:04;;;;;;;2.65;2.33;;;6.70;87.10;;;;;;5045264;28;20100;-66
2024/02/26 01:46:30;;;;;;;2.55;2.20;;;6.70;87.30;;;;;;5047090;28;20502;-66
2024/02/26 01:48:56;;;;;;;4.40;3.10;;;6.70;87.40;;;;;;5046345;28;20113;-66
2024/02/26 01:51:22;;;;;;;3.60;2.92;;;6.70;87.40;;;;;;5048332;28;20107;-67
2024/02/26 01:53:48;;;;;;;3.53;2.72;;;6.60;87.40;;;;;;5043977;28;20044;-67
2024/02/26 01:56:15;;;;;;;3.58;2.70;;;6.60;87.60;;;;;;5042712;28;20029;-66
2024/02/26 01:58:42;;;;;;;4.22;3.10;;;6.60;87.70;;;;;;5044600;28;20475;-66
2024/02/26 02:01:07;;;;;;;2.75;2.20;;;6.60;87.70;;;;;;5045606;28;20024;-66
2024/02/26 02:03:33;;;;;;;1.90;1.70;;;6.60;87.70;;;;;;5048138;28;20104;-67
2024/02/26 02:05:59;;;;;;;3.83;2.50;;;6.70;87.60;;;;;;5047287;28;20037;-67
2024/02/26 02:08:25;;;;;;;5.43;3.25;;;6.70;87.60;;;;;;5046129;28;20029;-67
2024/02/26 02:10:51;;;;;;;3.17;2.58;;;6.60;87.80;;;;;;5048124;28;20087;-67
2024/02/26 02:13:16;;;;;;;4.05;3.38;;;6.50;88.00;;;;;;5051167;28;20024;-65
2024/02/26 02:15:42;;;;;;;4.25;2.92;;;6.50;88.20;;;;;;5050371;28;20079;-68
2024/02/26 02:18:08;;;;;;;2.92;2.42;;;6.50;88.40;;;;;;5048300;28;20029;-66
2024/02/26 02:20:34;;;;;;;3.50;2.45;;;6.60;88.30;;;;;;5049530;28;20475;-66
2024/02/26 02:23:00;;;;;;;4.80;2.53;;;6.60;88.20;;;;;;5049731;28;20068;-68
2024/02/26 02:25:26;;;;;;;4.15;2.33;;;6.70;88.10;;;;;;5050334;28;20021;-67
2024/02/26 02:27:54;;;;;;;2.78;2.30;;;6.70;87.90;;;;;;5049761;28;20502;-67
2024/02/26 02:30:21;;;;;;;2.60;1.90;;;6.70;88.10;;;;;;5048258;28;20067;-66
2024/02/26 02:32:46;;;;;;;2.30;1.80;;;6.80;88.00;;;;;;5045965;28;20028;-67
2024/02/26 02:35:12;;;;;;;2.50;2.10;;;6.80;87.90;;;;;;5049897;28;20035;-64
2024/02/26 02:37:38;;;;;;;2.25;2.00;;;6.80;87.70;;;;;;5048709;28;20484;-65
2024/02/26 02:40:05;;;;;;;3.80;2.50;;;6.90;87.80;;;;;;5050182;28;20074;-67
2024/02/26 02:42:30;;;;;;;3.38;2.70;;;6.80;87.50;;;;;;5049607;28;20474;-66
2024/02/26 02:44:56;;;;;;;3.67;2.50;;;6.80;87.50;;;;;;5051241;28;20022;-65
2024/02/26 02:47:21;;;;;;;3.10;2.45;;;6.80;87.70;;;;;;5051401;28;20615;-66
2024/02/26 02:49:47;;;;;;;2.10;1.90;;;6.80;87.70;;;;;;5050954;28;20049;-65
2024/02/26 02:52:12;;;;;;;2.60;2.00;;;6.90;87.70;;;;;;5047426;28;20028;-66
2024/02/26 02:54:40;;;;;;;2.05;1.85;;;6.90;87.60;;;;;;5049342;28;20057;-66
2024/02/26 02:57:06;;;;;;;2.03;1.67;;;7.00;87.60;;;;;;5050274;28;20109;-66
2024/02/26 02:59:31;;;;;;;2.92;2.20;;;7.00;87.40;;;;;;5049360;28;20450;-65
2024/02/26 03:01:57;;;;;;;2.25;1.90;;;6.90;87.30;;;;;;5050612;28;20017;-66
2024/02/26 03:04:22;;;;;;;2.42;2.10;;;7.00;87.50;;;;;;5051197;28;20048;-67
2024/02/26 03:06:48;;;;;;;3.17;2.40;;;6.90;87.40;;;;;;5050860;28;20022;-66
2024/02/26 03:09:13;;;;;;;2.80;2.10;;;6.90;87.30;;;;;;5049027;28;21563;-64
2024/02/26 03:11:39;;;;;;;2.90;2.05;;;6.90;87.60;;;;;;5050127;28;20475;-65
2024/02/26 03:14:06;;;;;;;2.33;1.92;;;6.90;87.50;;;;;;5048620;28;20391;-65
2024/02/26 03:16:32;;;;;;;2.10;1.90;;;6.90;87.40;;;;;;5050304;28;20031;-65
2024/02/26 03:18:58;;;;;;;2.88;2.10;;;6.90;87.40;;;;;;5048804;28;20021;-65
2024/02/26 03:21:25;;;;;;;3.10;2.10;;;7.00;87.40;;;;;;5048440;28;20029;-66
2024/02/26 03:23:50;;;;;;;3.70;2.50;;;7.00;87.20;;;;;;5050087;28;20021;-66
2024/02/26 03:26:16;;;;;;;2.92;2.20;;;7.00;87.30;;;;;;5049767;28;20067;-66
2024/02/26 03:28:42;;;;;;;2.70;2.10;;;6.90;87.20;;;;;;5049468;28;20395;-66
2024/02/26 03:31:07;;;;;;;2.90;2.22;;;6.90;87.20;;;;;;5047508;28;20021;-67
2024/02/26 03:33:34;;;;;;;2.92;2.05;;;6.90;87.20;;;;;;5048054;28;20025;-66
2024/02/26 03:35:59;;;;;;;2.95;2.30;;;6.90;87.30;;;;;;5050421;28;20025;-66
2024/02/26 03:38:25;;;;;;;2.38;1.90;;;6.90;87.30;;;;;;5049011;28;20091;-66
2024/02/26 03:40:51;;;;;;;2.65;2.20;;;6.90;87.40;;;;;;5046435;28;20059;-66
2024/02/26 03:43:17;;;;;;;2.75;1.90;;;6.90;87.40;;;;;;5044922;28;20388;-66
2024/02/26 03:45:42;;;;;;;2.28;2.03;;;6.90;87.40;;;;;;5048638;28;20031;-65
2024/02/26 03:48:08;;;;;;;4.63;2.50;;;6.90;87.30;;;;;;5051018;28;20037;-66
2024/02/26 03:50:34;;;;;;;2.67;2.22;;;6.90;87.30;;;;;;5046220;28;20044;-67
2024/02/26 03:53:00;;;;;;;3.15;2.25;;;6.80;87.30;;;;;;5045587;28;20380;-66
2024/02/26 03:55:25;;;;;;;2.75;1.98;;;6.80;87.40;;;;;;5048669;28;20032;-67
2024/02/26 03:57:54;;;;;;;2.25;1.80;;;6.90;87.50;;;;;;5045416;28;20027;-67
2024/02/26 04:00:20;;;;;;;2.50;2.28;;;6.90;87.30;;;;;;5047697;28;20044;-65
2024/02/26 04:02:47;;;;;;;3.50;2.50;;;6.90;87.20;;;;;;5047836;28;20028;-66
2024/02/26 04:05:13;;;;;;;3.20;2.50;;;6.80;87.20;;;;;;5043912;28;20076;-66
2024/02/26 04:07:40;;;;;;;6.22;2.67;;;6.80;87.30;;;;;;5047426;28;20029;-66
2024/02/26 04:10:10;;;;;;;4.55;3.08;;;6.70;87.40;;;;;;5047954;28;20028;-67
2024/02/26 04:12:39;;;;;;;3.88;2.90;;;6.70;87.50;;;;;;5045288;28;20021;-66
2024/02/26 04:15:05;;;;;;;3.78;3.03;;;6.60;87.50;;;;;;5047749;28;20692;-65
2024/02/26 04:17:31;;;;;;;3.58;2.80;;;6.60;87.80;;;;;;5044084;28;20049;-65
2024/02/26 04:19:56;;;;;;;4.03;3.17;;;6.50;87.90;;;;;;5046831;28;20052;-65
2024/02/26 04:22:22;;;;;;;3.83;2.92;;;6.50;88.00;;;;;;5046880;28;20465;-65
2024/02/26 04:24:47;;;;;;;4.35;3.08;;;6.50;88.10;;;;;;5048105;28;20053;-65
2024/02/26 04:27:13;;;;;;;6.03;3.03;;;6.50;88.20;;;;;;5046240;28;20444;-65
2024/02/26 04:29:38;;;;;;;4.25;3.20;;;6.40;88.20;;;;;;5048208;28;20071;-65
2024/02/26 04:32:05;;;;;;;4.43;3.38;;;6.40;88.30;;;;;;5044842;28;20025;-65
2024/02/26 04:34:31;;;;;;;4.18;3.05;;;6.40;88.30;;;;;;5042004;28;20029;-65
2024/02/26 04:36:56;;;;;;;4.45;3.25;;;6.40;88.40;;;;;;5048442;28;20108;-66
2024/02/26 04:39:22;;;;;;;3.95;2.88;;;6.40;88.50;;;;;;5048339;28;20060;-66
2024/02/26 04:41:47;;;;;;;4.00;3.08;;;6.40;88.60;;;;;;5046767;28;20052;-63
2024/02/26 04:44:13;;;;;;;4.65;2.60;;;6.40;88.60;;;;;;5045172;28;20057;-66
2024/02/26 04:46:38;;;;;;;3.85;2.80;;;6.40;88.60;;;;;;5048031;28;20029;-65
2024/02/26 04:49:04;;;;;;;4.50;3.10;;;6.50;88.60;;;;;;5048561;28;20037;-64
2024/02/26 04:51:29;;;;;;;3.60;2.65;;;6.40;88.40;;;;;;5044027;28;20025;-64
2024/02/26 04:53:55;;;;;;;4.82;3.00;;;6.40;88.60;;;;;;5047416;28;20024;-61
2024/02/26 04:56:21;;;;;;;4.07;3.08;;;6.50;88.50;;;;;;5046708;28;20060;-67
2024/02/26 04:58:47;;;;;;;4.30;2.90;;;6.40;88.50;;;;;;5047041;28;20106;-65
2024/02/26 05:01:13;;;;;;;5.03;3.25;;;6.40;88.60;;;;;;5048163;28;20475;-65
2024/02/26 05:03:38;;;;;;;4.00;2.90;;;6.40;88.60;;;;;;5047346;28;20028;-65
2024/02/26 05:06:05;;;;;;;4.18;2.88;;;6.40;88.70;;;;;;5047578;28;20052;-64
2024/02/26 05:08:31;;;;;;;4.15;2.85;;;6.40;88.80;;;;;;5042696;28;20013;-65
2024/02/26 05:10:56;;;;;;;4.82;3.00;;;6.40;88.80;;;;;;5046561;28;20056;-65
2024/02/26 05:13:22;;;;;;;4.15;3.20;;;6.30;88.80;;;;;;5046974;28;20088;-65
2024/02/26 05:15:49;;;;;;;5.18;3.30;;;6.30;88.90;;;;;;5047581;28;20025;-65
2024/02/26 05:18:15;;;;;;;5.63;3.35;;;6.30;89.20;;;;;;5047670;28;20035;-66
2024/02/26 05:20:41;;;;;;;3.92;3.00;;;6.30;89.30;;;;;;5047307;28;20029;-65
2024/02/26 05:23:06;;;;;;;3.78;2.80;;;6.30;89.40;;;;;;5045294;28;20510;-65
2024/02/26 05:25:32;;;;;;;4.32;3.20;;;6.30;89.60;;;;;;5047727;28;20159;-65
2024/02/26 05:27:57;;;;;;;4.90;3.70;;;6.30;89.50;;;;;;5046007;28;20032;-65
2024/02/26 05:30:23;;;;;;;5.10;3.33;;;6.20;89.60;;;;;;5045184;28;20025;-65
2024/02/26 05:32:48;;;;;;;5.97;3.70;;;6.30;89.70;;;;;;5046251;28;20029;-66
2024/02/26 05:35:14;;;;;;;5.68;4.00;;;6.30;89.70;;;;;;5047237;28;20033;-66
2024/02/26 05:37:40;;;;;;;4.47;3.22;;;6.20;89.80;;;;;;5047491;28;20087;-64
2024/02/26 05:40:07;;;;;;;4.38;3.38;;;6.20;89.90;;;;;;5046977;28;20032;-65
2024/02/26 05:42:33;;;;;;;5.10;3.47;;;6.20;89.90;;;;;;5047369;28;20033;-66
2024/02/26 05:44:59;;;;;;;3.97;2.90;;;6.30;90.00;;;;;;5045958;28;20111;-66
2024/02/26 05:47:24;;;;;;;6.47;3.10;;;6.30;90.00;;;;;;5048622;28;20075;-65
2024/02/26 05:49:50;;;;;;;4.00;3.15;;;6.20;90.00;;;;;;5047350;28;20068;-66
2024/02/26 05:52:15;;;;;;;4.20;3.10;;;6.20;90.00;;;;;;5050563;28;20040;-67
2024/02/26 05:54:41;;;;;;;3.88;3.03;;;6.20;90.10;;;;;;5050255;28;20021;-67
2024/02/26 05:57:06;;;;;;;4.70;3.35;;;6.20;90.10;;;;;;5051093;28;20074;-64
2024/02/26 05:59:32;;;;;;;4.15;3.00;;;6.20;90.10;;;;;;5050425;28;20031;-65
2024/02/26 06:01:57;;;;;;;4.45;3.10;;;6.20;90.10;;;;;;5047293;28;20109;-66
2024/02/26 06:04:23;;;;;;;4.80;3.17;;;6.20;90.10;;;;;;5050528;28;20032;-65
2024/02/26 06:06:49;;;;;;;4.38;3.05;;;6.20;90.20;;;;;;5050354;28;20025;-66
2024/02/26 06:09:15;;;;;;;3.63;2.70;;;6.20;90.20;;;;;;5049460;28;20360;-65
2024/02/26 06:11:40;;;;;;;4.45;3.17;;;6.20;90.20;;;;;;5043430;28;20081;-64
2024/02/26 06:14:06;;;;;;;3.67;2.72;;;6.20;90.30;;;;;;5048716;28;20060;-65
2024/02/26 06:16:31;;;;;;;4.22;3.20;;;6.20;90.30;;;;;;5045607;28;20025;-65
2024/02/26 06:19:00;;;;;;;4.10;3.10;;;6.20;90.40;;;;;;5046170;28;20033;-66
2024/02/26 06:21:26;;;;;;;3.55;2.70;;;6.20;90.40;;;;;;5046481;28;20028;-65
2024/02/26 06:23:51;;;;;;;4.82;3.30;;;6.20;90.50;;;;;;5048830;28;20043;-65
2024/02/26 06:26:17;;;;;;;4.60;3.28;;;6.20;90.60;;;;;;5049621;28;20021;-65
2024/02/26 06:28:42;;;;;;;4.75;3.40;;;6.20;90.60;;;;;;5051507;28;20029;-65
2024/02/26 06:31:08;;;;;;;4.25;3.03;;;6.20;90.60;;;;;;5048666;28;20045;-65
2024/02/26 06:33:34;;;;;;;3.78;2.92;;;6.20;90.50;;;;;;5050073;28;20028;-65
2024/02/26 06:35:59;;;;;;;4.13;3.10;;;6.30;90.50;;;;;;5044499;28;20693;-65
2024/02/26 06:38:25;;;;;;;5.05;3.40;;;6.20;90.40;;;;;;5047297;28;20029;-65
2024/02/26 06:40:50;;;;;;;3.97;2.90;;;6.30;90.50;;;;;;5047598;28;20029;-65
2024/02/26 06:43:16;;;;;;;4.55;3.30;;;6.30;90.50;;;;;;5048147;28;20025;-65
2024/02/26 06:45:41;;;;;;;4.22;3.05;;;6.30;90.50;;;;;;5047604;28;20049;-65
2024/02/26 06:48:07;;;;;;;4.85;2.90;;;6.30;90.50;;;;;;5050709;28;20037;-64
2024/02/26 06:50:33;;;;;;;4.07;3.05;;;6.30;90.50;;;;;;5049503;28;20052;-66
2024/02/26 06:52:58;;;;;;;5.03;3.35;;;6.30;90.50;;;;;;5047338;28;20040;-66
2024/02/26 06:55:24;;;;;;;4.32;2.90;;;6.30;90.80;;;;;;5046373;28;20104;-65
2024/02/26 06:57:49;;;;;;;4.18;3.05;;;6.30;90.60;;;;;;5049212;28;20043;-65
2024/02/26 07:00:16;;;;;;;4.53;3.40;;;6.30;90.60;;;;;;5045747;28;20113;-66
2024/02/26 07:02:42;;;;;;;4.78;3.50;;;6.30;90.50;;;;;;5049088;28;20060;-64
2024/02/26 07:05:08;;;;;;;5.07;3.53;;;6.30;90.50;;;;;;5049312;28;20021;-64
2024/02/26 07:07:34;;;;;;;4.97;3.60;;;6.30;90.60;;;;;;5044990;28;20021;-64
2024/02/26 07:10:03;;;;;;;5.20;3.47;;;6.20;90.60;;;;;;5047657;28;20099;-65
2024/02/26 07:12:29;;;;;;;5.25;3.10;;;6.20;90.70;;;;;;5048934;28;20538;-65
2024/02/26 07:14:55;;;;;;;5.15;3.42;;;6.20;90.70;;;;;;5050874;28;21141;-65
2024/02/26 07:17:20;;;;;;;4.70;3.47;;;6.20;90.70;;;;;;5050707;28;20075;-65
2024/02/26 07:19:46;;;;;;;6.00;4.03;;;6.30;90.80;;;;;;5045936;28;20064;-63
2024/02/26 07:22:11;;;;;;;6.60;4.55;;;6.20;90.80;;;;;;5048057;28;20021;-65
2024/02/26 07:24:37;;;;;;;6.03;4.13;;;6.20;90.80;;;;;;5049222;28;20541;-65
2024/02/26 07:27:03;;;;;;;5.05;3.55;;;6.20;90.80;;;;;;5043301;28;20032;-65
2024/02/26 07:29:28;;;;;;;5.10;3.33;;;6.30;90.80;;;;;;5048812;28;20090;-67
2024/02/26 07:31:54;;;;;;;6.70;4.43;;;6.30;90.80;;;;;;5047805;28;20033;-66
2024/02/26 07:34:19;;;;;;;6.65;4.40;;;6.30;90.80;;;;;;5047599;28;20078;-66
2024/02/26 07:36:45;;;;;;;6.72;4.60;;;6.30;90.80;;;;;;5048730;28;20029;-64
2024/02/26 07:39:10;;;;;;;6.70;4.28;;;6.30;90.90;;;;;;5048334;28;20072;-65
2024/02/26 07:41:38;;;;;;;6.95;4.45;;;6.20;90.90;;;;;;5046586;28;20025;-68
2024/02/26 07:44:03;;;;;;;6.90;4.35;;;6.30;90.90;;;;;;5048362;28;20032;-66
2024/02/26 07:46:29;;;;;;;6.07;4.32;;;6.30;91.00;;;;;;5048592;28;20021;-65
2024/02/26 07:48:54;;;;;;;8.00;4.63;;;6.30;91.00;;;;;;5048718;28;20040;-66
2024/02/26 07:51:20;;;;;;;7.72;5.20;;;6.30;91.00;;;;;;5047191;28;20028;-65
2024/02/26 07:53:46;;;;;;;7.07;4.68;;;6.30;91.00;;;;;;5047361;28;20043;-66
2024/02/26 07:56:11;;;;;;;8.13;5.00;;;6.30;91.10;;;;;;5048919;28;20025;-64
2024/02/26 07:58:37;;;;;;;8.50;5.75;;;6.30;91.20;;;;;;5046703;28;20522;-65
2024/02/26 08:01:02;;;;;;;8.63;5.30;;;6.30;91.20;;;;;;5043573;28;20009;-65
2024/02/26 08:03:28;;;;;;;9.05;5.47;;;6.30;91.20;;;;;;5047982;28;20029;-69
2024/02/26 08:05:54;;;;;;;8.57;5.65;;;6.30;91.20;;;;;;5044565;28;20061;-68
2024/02/26 08:08:20;;;;;;;9.40;5.15;;;6.30;91.30;;;;;;5044170;28;20027;-68
2024/02/26 08:10:45;;;;;;;9.45;5.63;;;6.30;91.30;;;;;;5046936;28;20395;-64
2024/02/26 08:13:11;;;;;;;8.45;5.25;;;6.30;91.40;;;;;;5047159;28;20542;-65
2024/02/26 08:15:39;;;;;;;8.60;5.38;;;6.30;91.40;;;;;;5047663;28;20673;-66
2024/02/26 08:18:05;;;;;;;11.65;6.40;;;6.30;91.40;;;;;;5041879;28;20702;-66
2024/02/26 08:20:31;;;;;;;8.95;5.53;;;6.30;91.50;;;;;;5045522;28;20026;-66
2024/02/26 08:22:57;;;;;;;9.77;5.40;;;6.30;91.60;;;;;;5045973;28;20027;-65
2024/02/26 08:25:23;;;;;;;9.75;5.70;;;6.30;91.60;;;;;;5049862;28;20537;-66
2024/02/26 08:27:49;;;;;;;9.05;5.20;;;6.30;91.60;;;;;;5048321;28;20029;-66
2024/02/26 08:30:16;;;;;;;8.25;5.50;;;6.30;91.60;;;;;;5047936;28;20025;-65
2024/02/26 08:32:46;;;;;;;8.68;5.43;;;6.30;91.70;;;;;;5045437;28;20025;-65
2024/02/26 08:35:11;;;;;;;8.13;4.82;;;6.30;91.70;;;;;;5045903;28;20032;-66
2024/02/26 08:37:37;;;;;;;7.15;4.45;;;6.20;91.70;;;;;;5045146;28;20033;-66
2024/02/26 08:40:03;;;;;;;8.68;5.30;;;6.30;91.70;;;;;;5039418;28;20064;-64
2024/02/26 08:42:29;;;;;;;8.88;5.32;;;6.40;91.80;;;;;;5036114;28;20401;-65
2024/02/26 08:44:55;;;;;;;9.32;4.95;;;6.30;91.80;;;;;;5051010;28;20013;-65
2024/02/26 08:47:20;;;;;;;12.05;6.72;;;6.30;91.80;;;;;;5044463;28;20025;-66
2024/02/26 08:49:46;;;;;;;10.98;6.38;;;6.30;91.90;;;;;;5045025;28;20025;-65
2024/02/26 08:52:12;;;;;;;9.85;5.70;;;6.30;92.00;;;;;;5045342;28;20060;-64
2024/02/26 08:54:37;;;;;;;9.15;5.40;;;6.20;92.00;;;;;;5047851;28;20105;-65
2024/02/26 08:57:03;;;;;;;12.05;6.15;;;6.30;92.00;;;;;;5048698;28;20503;-66
2024/02/26 08:59:29;;;;;;;10.60;6.15;;;6.30;92.10;;;;;;5046166;28;20033;-66
2024/02/26 09:01:55;;;;;;;8.82;5.38;;;6.30;92.10;;;;;;5045198;28;20025;-66
2024/02/26 09:04:20;;;;;;;11.77;6.03;;;6.30;92.10;;;;;;5046799;28;20029;-63
2024/02/26 09:06:47;;;;;;;9.05;5.13;;;6.30;92.10;;;;;;5046674;28;20500;-65
2024/02/26 09:09:12;;;;;;;11.07;6.43;;;6.30;92.20;;;;;;5044957;28;20051;-62
2024/02/26 09:11:38;;;;;;;11.05;6.43;;;6.30;92.20;;;;;;5044781;28;20634;-64
2024/02/26 09:14:03;;;;;;;8.98;5.43;;;6.30;92.30;;;;;;5046301;28;20531;-66
2024/02/26 09:16:30;;;;;;;9.52;5.38;;;6.30;92.30;;;;;;5045694;28;20418;-66
2024/02/26 09:18:56;;;;;;;9.52;5.35;;;6.30;92.30;;;;;;5044714;28;20037;-64
2024/02/26 09:21:23;;;;;;;11.40;6.50;;;6.40;92.30;;;;;;5043348;28;20033;-64
2024/02/26 09:23:52;;;;;;;10.65;6.25;;;6.30;92.30;;;;;;5044364;28;20021;-64
2024/02/26 09:26:18;;;;;;;11.98;6.80;;;6.30;92.40;;;;;;5048090;28;20029;-65
2024/02/26 09:28:44;;;;;;;11.10;6.07;;;6.40;92.50;;;;;;5045584;28;20500;-64
2024/02/26 09:31:10;;;;;;;8.70;5.50;;;6.40;92.50;;;;;;5041740;28;20036;-66
2024/02/26 09:33:35;;;;;;;10.10;5.85;;;6.40;92.50;;;;;;5045753;28;20029;-66
2024/02/26 09:36:01;;;;;;;9.80;6.03;;;6.40;92.40;;;;;;5047522;28;20059;-64
2024/02/26 09:38:27;;;;;;;9.80;5.97;;;6.50;92.50;;;;;;5046394;28;20434;-66
2024/02/26 09:40:53;;;;;;;9.75;5.80;;;6.40;92.50;;;;;;5044551;28;20021;-66
2024/02/26 09:43:23;;;;;;;9.05;5.65;;;6.40;92.60;;;;;;5045880;28;20483;-65
2024/02/26 09:45:51;;;;;;;12.02;6.03;;;6.40;92.60;;;;;;5045183;28;20289;-66
2024/02/26 09:48:17;;;;;;;10.52;5.85;;;6.50;92.60;;;;;;5045722;28;20028;-65
2024/02/26 09:50:43;;;;;;;12.63;6.75;;;6.40;92.60;;;;;;5044533;28;20434;-66
2024/02/26 09:53:12;;;;;;;9.07;5.65;;;6.40;92.70;;;;;;5046544;28;20552;-66
2024/02/26 09:55:37;;;;;;;12.50;6.55;;;6.40;92.80;;;;;;5045876;28;20024;-65
2024/02/26 09:58:05;;;;;;;11.20;6.55;;;6.40;92.90;;;;;;5045367;28;20021;-66
2024/02/26 10:00:34;;;;;;;9.93;5.93;;;6.40;92.90;;;;;;5044607;28;20028;-66
2024/02/26 10:03:04;;;;;;;9.27;5.22;;;6.40;93.00;;;;;;5045239;28;20025;-65
2024/02/26 10:05:35;;;;;;;10.00;5.85;;;6.40;93.10;;;;;;5044712;28;20138;-66
2024/02/26 10:08:01;;;;;;;9.00;5.38;;;6.40;93.10;;;;;;5045911;28;20017;-65
2024/02/26 10:10:29;;;;;;;8.77;5.32;;;6.40;93.10;;;;;;5046276;28;20028;-64
2024/02/26 10:12:55;;;;;;;9.10;5.38;;;6.40;93.10;;;;;;5045019;28;20032;-65
2024/02/26 10:15:20;;;;;;;8.95;5.30;;;6.50;93.10;;;;;;5045466;28;20033;-64
2024/02/26 10:17:46;;;;;;;10.00;5.53;;;6.40;93.10;;;;;;5043703;28;20037;-66
2024/02/26 10:20:21;;;;;;;7.97;4.95;;;6.40;93.10;;;;;;5045703;28;20028;-66
2024/02/26 10:22:47;;;;;;;8.20;4.68;;;6.40;93.10;;;;;;5043351;28;20032;-67
2024/02/26 10:25:13;;;;;;;10.80;5.88;;;6.50;93.20;;;;;;5045922;28;20021;-66
2024/02/26 10:27:42;;;;;;;9.38;4.82;;;6.50;93.10;;;;;;5041316;28;20025;-67
2024/02/26 10:30:22;;;;;;;7.93;4.97;;;6.40;93.20;;;;;;5045426;28;20090;-66
2024/02/26 10:32:49;;;;;;;8.00;4.97;;;6.50;93.20;;;;;;5047451;28;20103;-66
2024/02/26 10:35:15;;;;;;;8.25;4.93;;;6.50;93.20;;;;;;5045328;28;20021;-66
2024/02/26 10:37:41;;;;;;;7.10;4.40;;;6.50;93.30;;;;;;5046059;28;20025;-67
2024/02/26 10:40:14;;;;;;;8.10;4.70;;;6.50;93.30;;;;;;5049718;28;20411;-67
2024/02/26 10:42:40;;;;;;;8.88;5.10;;;6.50;93.40;;;;;;5046283;28;20021;-66
2024/02/26 10:45:08;;;;;;;9.15;5.22;;;6.50;93.40;;;;;;5049100;28;20107;-67
2024/02/26 10:47:35;;;;;;;8.98;5.10;;;6.50;93.40;;;;;;5051637;28;20035;-66
2024/02/26 10:50:03;;;;;;;8.88;5.00;;;6.50;93.40;;;;;;5050134;28;20017;-65
2024/02/26 10:52:32;;;;;;;7.97;5.20;;;6.50;93.50;;;;;;5050043;28;20625;-67
2024/02/26 10:55:02;;;;;;;8.48;5.15;;;6.50;93.40;;;;;;5050235;28;20024;-65
2024/02/26 10:57:38;;;;;;;9.48;5.43;;;6.50;93.40;;;;;;5049952;28;20037;-66
2024/02/26 11:00:05;;;;;;;8.73;5.28;;;6.50;93.40;;;;;;5042038;28;20070;-67
2024/02/26 11:02:35;;;;;;;8.80;5.10;;;6.50;93.50;;;;;;5046857;28;20502;-66
2024/02/26 11:05:05;;;;;;;8.43;5.20;;;6.50;93.50;;;;;;5047604;28;20017;-65
2024/02/26 11:07:32;;;;;;;8.05;4.72;;;6.60;93.50;;;;;;5040460;28;20032;-66
2024/02/26 11:09:59;;;;;;;8.52;5.30;;;6.60;93.50;;;;;;5042631;28;20091;-65
2024/02/26 11:12:28;;;;;;;8.10;5.22;;;6.60;93.50;;;;;;5047236;28;20096;-67
2024/02/26 11:14:56;;;;;;;10.30;5.65;;;6.50;93.40;;;;;;5048631;28;20037;-66
2024/02/26 11:17:23;;;;;;;9.80;5.15;;;6.60;93.50;;;;;;5047786;28;20029;-67
2024/02/26 11:19:51;;;;;;;9.73;5.43;;;6.60;93.50;;;;;;5044443;28;20029;-67
2024/02/26 11:22:16;;;;;;;8.38;5.15;;;6.60;93.50;;;;;;5044407;28;20021;-67
2024/02/26 11:24:42;;;;;;;6.22;3.95;;;6.60;93.60;;;;;;5045441;28;20028;-65
2024/02/26 11:27:10;;;;;;;8.50;5.13;;;6.60;93.80;;;;;;5049329;28;20522;-66
2024/02/26 11:29:44;;;;;;;8.63;4.88;;;6.60;93.60;;;;;;5047387;28;20025;-67
2024/02/26 11:32:10;;;;;;;9.40;5.78;;;6.60;93.60;;;;;;5049861;28;20542;-67
2024/02/26 11:34:36;;;;;;;7.90;4.50;;;6.50;93.60;;;;;;5048122;28;20035;-67
2024/02/26 11:37:11;;;;;;;8.80;5.30;;;6.60;93.70;;;;;;5051534;28;20029;-65
2024/02/26 11:39:39;;;;;;;7.80;4.47;;;6.60;93.70;;;;;;5048733;28;20029;-66
2024/02/26 11:42:07;;;;;;;8.40;5.13;;;6.60;93.80;;;;;;5038374;28;20017;-65
2024/02/26 11:44:33;;;;;;;7.93;4.70;;;6.60;93.80;;;;;;5047649;28;20017;-66
2024/02/26 11:46:59;;;;;;;7.45;4.60;;;6.60;93.80;;;;;;5046076;28;20449;-66
2024/02/26 11:49:28;;;;;;;7.65;4.63;;;6.60;93.80;;;;;;5048124;28;20060;-66
2024/02/26 11:51:55;;;;;;;9.68;5.93;;;6.60;93.80;;;;;;5047683;28;20037;-67
2024/02/26 11:54:52;;;;;;;6.63;4.20;;;6.60;93.90;;;;;;5049294;28;20119;-65
2024/02/26 11:57:37;;;;;;;6.80;4.05;;;6.60;93.90;;;;;;5044925;28;20021;-66
2024/02/26 12:00:06;;;;;;;6.32;4.22;;;6.60;93.90;;;;;;5050069;28;20547;-67
2024/02/26 12:02:45;;;;;;;7.30;4.22;;;6.70;93.90;;;;;;5047463;28;20025;-65
2024/02/26 12:05:20;;;;;;;7.50;4.20;;;6.70;93.90;;;;;;5043770;28;20021;-64
2024/02/26 12:07:53;;;;;;;7.45;4.45;;;6.60;93.90;;;;;;5047123;28;20061;-65
2024/02/26 12:10:26;;;;;;;7.63;4.63;;;6.70;93.90;;;;;;5049554;28;20059;-67
2024/02/26 12:13:07;;;;;;;6.85;4.00;;;6.70;94.00;;;;;;5047904;28;20363;-66
2024/02/26 12:15:38;;;;;;;6.40;3.85;;;6.70;93.90;;;;;;5047386;28;20460;-66
2024/02/26 12:18:05;;;;;;;8.52;4.38;;;6.70;93.90;;;;;;5049631;28;20029;-66
2024/02/26 12:20:31;;;;;;;6.00;3.67;;;6.70;93.90;;;;;;5041491;28;20094;-65
2024/02/26 12:22:57;;;;;;;5.68;3.60;;;6.80;94.00;;;;;;5041711;28;20037;-66
2024/02/26 12:25:29;;;;;;;5.70;3.90;;;6.80;93.90;;;;;;5039438;28;20041;-65
2024/02/26 12:27:55;;;;;;;5.35;3.25;;;6.80;93.90;;;;;;5048049;28;20028;-64
2024/02/26 12:30:21;;;;;;;6.05;3.45;;;6.80;93.80;;;;;;5049196;28;20029;-66
2024/02/26 12:32:48;;;;;;;6.32;4.00;;;6.80;93.90;;;;;;5048018;28;20028;-65
2024/02/26 12:35:16;;;;;;;7.40;4.18;;;6.80;94.20;;;;;;5048857;28;20029;-67
2024/02/26 12:37:42;;;;;;;7.00;4.22;;;6.80;93.90;;;;;;5048792;28;20024;-66
2024/02/26 12:40:11;;;;;;;6.00;3.72;;;6.80;93.90;;;;;;5049678;28;20029;-66
2024/02/26 12:42:41;;;;;;;6.82;4.32;;;6.90;93.90;;;;;;5047783;28;20013;-65
2024/02/26 12:45:09;;;;;;;6.40;3.90;;;6.90;93.90;;;;;;5047950;28;20017;-65
2024/02/26 12:47:42;;;;;;;4.93;3.30;;;6.90;93.90;;;;;;5046698;28;20021;-65
2024/02/26 12:50:09;;;;;;;5.35;3.25;;;6.90;94.00;;;;;;5039051;28;20056;-64
2024/02/26 12:52:37;;;;;;;6.57;4.15;;;6.90;93.90;;;;;;5043045;28;20580;-66